Aérodrome :
LOGIN :

S'inscrire | Disclaimer

   EN    FR    IT 

 










Légende :    VFR   VFR Marginal   IFR   IFR Intensif   IFR Très Intensif
Visi : 
Plafond : 
>= 8 km
>= 3000ft
5 à 8 km
1000 à 3000 ft
1500m à 5 km
500 à 1000 ft
800 à 1500m
200 à 500 ft
< 800m
< 200 ft
Symboles :   Orages  Brouillard  Fortes neiges  Fortes précipitations  Vent > 20 kt
SIGMETs :   Divers  Orages  Givrage  Turbulence  Onde Orograph.  Cendres Volcan.







- Altitude de l'aérodrome : 42 ft
- Code IATA : CAL
- Voir les cartes d'approche


EGEC - Campbeltown

DERNIER METAR :
  • 220650Z 23020KT 9999 SCT019 BKN027 20/17 Q1008

TAF TAF EGEC
Valide du 22 à 07h jusqu'au 22 à 15h UTC


220702Z 2207/2215 20017KT 9999 FEW009 BKN030
TEMPO 2207/2215 24020G30KT 6000 RA BKN009
Pas de NOTAMs connus pour ce terrain.
1 SIGMET publié pour la FIR Scottish (EGPX) :
 
Onde orographique forte
EGPX SIGMET 02 VALID 220600/221000 EGRR
EGPX SCOTTISH FIR SEV MTW FCST WI N5500 W00530 - N5355 W00530 - N5425 W00810 - N5606 W00551 - N5711 E00019 - N5500 E00140 - N5500 W00530 FL040/240 STNR NC=



MET'MAP, la Météo Aéronautique d'un coup d'oeil ! - Copyright ORBIFLY Décembre 2007 - Disclaimer

ORBIFLY MET'MAP TEAM :

Programmation & Développement : Alexandra Zaïnal
Conception & Développement : Baudouin d'Aumeries
Co-Programmation & Développement : Marc-Olivier Méhu
Soutien technique & logistique : Manuel Goepfert

Contact : metmap@orbifly.com




SOURCES & CREDITS :

   NOAA